logo
Search for airport 
image banner adimage banner adimage banner ad
image banner ad

SCBI - Pampa Guanaco

Located in Bahia Inutil, Chile

ICAO - SCBI, IATA -

Data provided by Airmate  

General information

Coordinates: S54°3'0" W68°48'34"
Elevation is 591 feet MSL.
Magnetic variation is 12° East
View others Airports in Magallanes

Operational data

Special qualification required
Current time UTC:
Current local time:
Weather at : SAWE - Río Grande ( 76 km )
METAR: SAWE 211400Z 22017KT CAVOK 02/M10 Q1010 RMK PP000
TAF: TAF SAWE 211100Z 2112/2212 23010KT CAVOK TX07/2100Z TNM03/2112Z BECMG 2113/2115 27015KT
View NOTAMs / SUP AIP / TFR affecting this airport [VIEW]
Communications frequencies: [VIEW]

Runways:

RWY identifierQFULength (ft)Width (ft)SurfaceLDA (ft)
0890°262566ASPH
26270°262566ASPH

Airport contact information

Address: Bahia Inutil Chile

Satellite view of SCBI